Hlavní strana
METAR-TAF:

METAR-TAF

Letiště :

Vientiane, Laos

zeměpisná šířka: 17-57N, zeměpisná délka: 102-34E, výška: 171 m

Aktuální stav počasí

Zpráva byla vytvořena před 3 hodinami a 10 minutami, v 16:00 UTC
Západní vítr 2 kt
Teplota 26°C
Vlhkost vzduchu 89%
Tlak 1005 hPa
Viditelnost: 3000 m
Polojasno ve výšce 5000 ft
kouřmo

METAR: VLVT 151600Z 27002KT 3000 BR SCT050 26/24 Q1005 NOSIG

Čas: 02:10 (19:10 UTC)

Předpověď počasí

Zpráva byla vytvořena před 2 hodinami a 10 minutami, v 17:00 UTC
Předpověď platná od 15 v 18 UTC do 16 v 18 UTC
Východní vítr 4 kt
Viditelnost: 8000 m
Polojasno ve výšce 1600 ft
Oblačno až skoro zataženo ve výšce 8300 ft
Dočasný
od 15 v 18 UTC do 15 v 22 UTC
Viditelnost: 3000 m
Oblačno až skoro zataženo ve výšce 4000 ft
Polojasno ve výšce 8300 ft
kouřmo

TAF: VLVT 151700Z 1518/1618 09004KT 8000 SCT016 BKN083 TEMPO 1518/1522 3000 BR BKN040 SCT083

Stav a předpovědi počasí z více než 4 000 letišť (zprávy METAR a TAF).

Červené a žluté tečky na mapě představují dostupné meteorologické stanice.

Když kurzor umístíte na tečku, zobrazí se název stanice.

Pak kliknutím zobrazíte stav a předpověď počasí.

Chcete-li změnit mapu, kliknutím na zelené tlačítko se znaménkem +mapu přiblížíte, kliknutím na zelené tlačítko se znaménkem – mapu oddálíte a kliknutím na zelené šipky přejdete na sousední mapy.


METAR-TAF: